sensor_id;sensor_type;location;lat;lon;timestamp;P1;durP1;ratioP1;P2;durP2;ratioP2
64826;SDS011;51265;53.972;12.286;2023-05-02T00:00:48;6.55;;;3.28;;
64826;SDS011;51265;53.972;12.286;2023-05-02T00:03:15;6.32;;;3.60;;
64826;SDS011;51265;53.972;12.286;2023-05-02T00:05:42;8.88;;;4.10;;
64826;SDS011;51265;53.972;12.286;2023-05-02T00:08:08;10.77;;;3.85;;
64826;SDS011;51265;53.972;12.286;2023-05-02T00:10:35;8.40;;;4.85;;
64826;SDS011;51265;53.972;12.286;2023-05-02T00:13:01;9.10;;;5.15;;
64826;SDS011;51265;53.972;12.286;2023-05-02T00:15:27;11.23;;;5.43;;
64826;SDS011;51265;53.972;12.286;2023-05-02T00:17:54;9.15;;;4.47;;
64826;SDS011;51265;53.972;12.286;2023-05-02T00:20:20;11.90;;;5.38;;
64826;SDS011;51265;53.972;12.286;2023-05-02T00:22:47;10.63;;;4.50;;
64826;SDS011;51265;53.972;12.286;2023-05-02T00:25:13;13.55;;;5.28;;
64826;SDS011;51265;53.972;12.286;2023-05-02T00:27:44;8.77;;;5.20;;
64826;SDS011;51265;53.972;12.286;2023-05-02T00:30:11;11.20;;;4.80;;
64826;SDS011;51265;53.972;12.286;2023-05-02T00:32:39;10.48;;;5.57;;
64826;SDS011;51265;53.972;12.286;2023-05-02T00:35:05;10.95;;;5.20;;
64826;SDS011;51265;53.972;12.286;2023-05-02T00:37:33;8.20;;;4.68;;
64826;SDS011;51265;53.972;12.286;2023-05-02T00:39:59;11.05;;;4.97;;
64826;SDS011;51265;53.972;12.286;2023-05-02T00:42:26;13.40;;;5.38;;
64826;SDS011;51265;53.972;12.286;2023-05-02T00:44:56;8.30;;;5.32;;
64826;SDS011;51265;53.972;12.286;2023-05-02T00:47:22;9.45;;;5.03;;
64826;SDS011;51265;53.972;12.286;2023-05-02T00:49:49;9.98;;;5.18;;
64826;SDS011;51265;53.972;12.286;2023-05-02T00:52:15;11.00;;;5.00;;
64826;SDS011;51265;53.972;12.286;2023-05-02T00:54:42;12.23;;;4.80;;
64826;SDS011;51265;53.972;12.286;2023-05-02T00:57:09;8.07;;;5.07;;
64826;SDS011;51265;53.972;12.286;2023-05-02T00:59:35;12.43;;;5.15;;
64826;SDS011;51265;53.972;12.286;2023-05-02T01:02:05;11.18;;;5.78;;
64826;SDS011;51265;53.972;12.286;2023-05-02T01:07:34;10.30;;;5.30;;
64826;SDS011;51265;53.972;12.286;2023-05-02T01:13:02;8.82;;;5.28;;
64826;SDS011;51265;53.972;12.286;2023-05-02T01:15:36;9.98;;;4.90;;
64826;SDS011;51265;53.972;12.286;2023-05-02T01:18:04;12.82;;;5.22;;
64826;SDS011;51265;53.972;12.286;2023-05-02T01:20:35;11.15;;;5.88;;
64826;SDS011;51265;53.972;12.286;2023-05-02T01:23:12;11.00;;;5.50;;
64826;SDS011;51265;53.972;12.286;2023-05-02T01:31:45;13.77;;;6.20;;
64826;SDS011;51265;53.972;12.286;2023-05-02T01:34:14;14.80;;;6.88;;
64826;SDS011;51265;53.972;12.286;2023-05-02T01:36:44;9.90;;;5.93;;
64826;SDS011;51265;53.972;12.286;2023-05-02T01:39:12;13.73;;;7.55;;
64826;SDS011;51265;53.972;12.286;2023-05-02T01:41:41;13.48;;;6.50;;
64826;SDS011;51265;53.972;12.286;2023-05-02T01:44:09;12.27;;;6.53;;
64826;SDS011;51265;53.972;12.286;2023-05-02T01:46:37;9.50;;;6.20;;
64826;SDS011;51265;53.972;12.286;2023-05-02T01:49:06;11.60;;;6.93;;
64826;SDS011;51265;53.972;12.286;2023-05-02T01:51:34;15.10;;;7.03;;
64826;SDS011;51265;53.972;12.286;2023-05-02T01:54:12;12.82;;;7.72;;
64826;SDS011;51265;53.972;12.286;2023-05-02T01:56:40;15.13;;;7.25;;
64826;SDS011;51265;53.972;12.286;2023-05-02T01:59:10;14.40;;;7.43;;
64826;SDS011;51265;53.972;12.286;2023-05-02T02:01:40;13.50;;;7.25;;
64826;SDS011;51265;53.972;12.286;2023-05-02T02:04:08;16.13;;;8.60;;
64826;SDS011;51265;53.972;12.286;2023-05-02T02:06:37;14.35;;;8.23;;
64826;SDS011;51265;53.972;12.286;2023-05-02T02:09:08;14.10;;;8.00;;
64826;SDS011;51265;53.972;12.286;2023-05-02T02:11:57;14.85;;;7.57;;
64826;SDS011;51265;53.972;12.286;2023-05-02T02:14:38;15.73;;;9.15;;
64826;SDS011;51265;53.972;12.286;2023-05-02T02:17:12;18.17;;;8.98;;
64826;SDS011;51265;53.972;12.286;2023-05-02T02:19:47;14.57;;;8.48;;
64826;SDS011;51265;53.972;12.286;2023-05-02T02:22:18;15.60;;;8.77;;
64826;SDS011;51265;53.972;12.286;2023-05-02T02:24:45;20.30;;;9.00;;
64826;SDS011;51265;53.972;12.286;2023-05-02T02:27:13;17.55;;;9.00;;
64826;SDS011;51265;53.972;12.286;2023-05-02T02:29:40;17.13;;;9.98;;
64826;SDS011;51265;53.972;12.286;2023-05-02T02:32:06;20.40;;;10.63;;
64826;SDS011;51265;53.972;12.286;2023-05-02T02:34:33;20.42;;;11.18;;
64826;SDS011;51265;53.972;12.286;2023-05-02T02:37:01;20.08;;;11.27;;
64826;SDS011;51265;53.972;12.286;2023-05-02T02:42:54;23.10;;;11.32;;
64826;SDS011;51265;53.972;12.286;2023-05-02T02:51:13;25.02;;;12.55;;
64826;SDS011;51265;53.972;12.286;2023-05-02T02:56:41;31.45;;;14.18;;
64826;SDS011;51265;53.972;12.286;2023-05-02T03:02:06;29.05;;;14.75;;
64826;SDS011;51265;53.972;12.286;2023-05-02T03:04:34;32.20;;;15.40;;
64826;SDS011;51265;53.972;12.286;2023-05-02T03:07:03;29.20;;;15.38;;
64826;SDS011;51265;53.972;12.286;2023-05-02T03:09:45;31.70;;;16.27;;
64826;SDS011;51265;53.972;12.286;2023-05-02T03:12:18;30.27;;;16.08;;
64826;SDS011;51265;53.972;12.286;2023-05-02T03:14:45;32.53;;;17.67;;
64826;SDS011;51265;53.972;12.286;2023-05-02T03:17:11;29.33;;;16.40;;
64826;SDS011;51265;53.972;12.286;2023-05-02T03:19:38;29.73;;;15.57;;
64826;SDS011;51265;53.972;12.286;2023-05-02T03:22:05;34.58;;;16.02;;
64826;SDS011;51265;53.972;12.286;2023-05-02T03:24:33;30.30;;;14.93;;
64826;SDS011;51265;53.972;12.286;2023-05-02T03:27:00;30.55;;;16.63;;
64826;SDS011;51265;53.972;12.286;2023-05-02T03:29:33;33.22;;;17.73;;
64826;SDS011;51265;53.972;12.286;2023-05-02T03:31:59;33.15;;;17.15;;
64826;SDS011;51265;53.972;12.286;2023-05-02T03:34:26;32.58;;;17.27;;
64826;SDS011;51265;53.972;12.286;2023-05-02T03:36:53;31.10;;;17.42;;
64826;SDS011;51265;53.972;12.286;2023-05-02T03:39:20;33.53;;;17.65;;
64826;SDS011;51265;53.972;12.286;2023-05-02T03:41:47;35.03;;;17.90;;
64826;SDS011;51265;53.972;12.286;2023-05-02T03:44:18;35.92;;;18.35;;
64826;SDS011;51265;53.972;12.286;2023-05-02T03:46:44;35.88;;;18.35;;
64826;SDS011;51265;53.972;12.286;2023-05-02T03:49:12;39.15;;;19.25;;
64826;SDS011;51265;53.972;12.286;2023-05-02T03:51:41;36.83;;;18.40;;
64826;SDS011;51265;53.972;12.286;2023-05-02T03:54:08;45.33;;;20.27;;
64826;SDS011;51265;53.972;12.286;2023-05-02T03:56:37;37.35;;;18.70;;
64826;SDS011;51265;53.972;12.286;2023-05-02T03:59:14;37.70;;;19.17;;
64826;SDS011;51265;53.972;12.286;2023-05-02T04:01:41;40.58;;;19.75;;
64826;SDS011;51265;53.972;12.286;2023-05-02T04:04:08;27.08;;;12.93;;
64826;SDS011;51265;53.972;12.286;2023-05-02T04:06:43;20.58;;;9.20;;
64826;SDS011;51265;53.972;12.286;2023-05-02T04:09:10;18.02;;;7.65;;
64826;SDS011;51265;53.972;12.286;2023-05-02T04:11:46;18.80;;;8.80;;
64826;SDS011;51265;53.972;12.286;2023-05-02T04:14:13;22.40;;;8.77;;
64826;SDS011;51265;53.972;12.286;2023-05-02T04:16:41;25.25;;;9.10;;
64826;SDS011;51265;53.972;12.286;2023-05-02T04:19:13;19.88;;;8.10;;
64826;SDS011;51265;53.972;12.286;2023-05-02T04:21:40;19.92;;;6.47;;
64826;SDS011;51265;53.972;12.286;2023-05-02T04:24:07;24.95;;;6.32;;
64826;SDS011;51265;53.972;12.286;2023-05-02T04:26:35;23.40;;;5.60;;
64826;SDS011;51265;53.972;12.286;2023-05-02T04:29:06;14.50;;;4.88;;
64826;SDS011;51265;53.972;12.286;2023-05-02T04:31:33;22.25;;;5.10;;
64826;SDS011;51265;53.972;12.286;2023-05-02T04:34:00;18.55;;;4.35;;
64826;SDS011;51265;53.972;12.286;2023-05-02T04:36:32;17.42;;;3.67;;
64826;SDS011;51265;53.972;12.286;2023-05-02T04:38:59;20.80;;;4.32;;
64826;SDS011;51265;53.972;12.286;2023-05-02T04:41:26;19.67;;;4.65;;
64826;SDS011;51265;53.972;12.286;2023-05-02T04:43:58;18.55;;;4.85;;
64826;SDS011;51265;53.972;12.286;2023-05-02T04:46:25;19.50;;;5.25;;
64826;SDS011;51265;53.972;12.286;2023-05-02T04:48:52;27.73;;;5.95;;
64826;SDS011;51265;53.972;12.286;2023-05-02T04:51:19;16.90;;;3.72;;
64826;SDS011;51265;53.972;12.286;2023-05-02T04:53:48;23.10;;;4.88;;
64826;SDS011;51265;53.972;12.286;2023-05-02T04:56:15;21.17;;;4.25;;
64826;SDS011;51265;53.972;12.286;2023-05-02T04:58:42;14.95;;;3.65;;
64826;SDS011;51265;53.972;12.286;2023-05-02T05:01:09;15.32;;;4.13;;
64826;SDS011;51265;53.972;12.286;2023-05-02T05:03:36;24.60;;;6.38;;
64826;SDS011;51265;53.972;12.286;2023-05-02T05:06:03;26.35;;;4.78;;
64826;SDS011;51265;53.972;12.286;2023-05-02T05:08:30;25.10;;;6.78;;
64826;SDS011;51265;53.972;12.286;2023-05-02T05:10:58;17.63;;;4.22;;
64826;SDS011;51265;53.972;12.286;2023-05-02T05:13:25;19.83;;;4.43;;
64826;SDS011;51265;53.972;12.286;2023-05-02T05:15:52;17.05;;;3.92;;
64826;SDS011;51265;53.972;12.286;2023-05-02T05:18:23;17.92;;;4.38;;
64826;SDS011;51265;53.972;12.286;2023-05-02T05:20:49;19.55;;;5.10;;
64826;SDS011;51265;53.972;12.286;2023-05-02T05:23:15;15.13;;;4.05;;
64826;SDS011;51265;53.972;12.286;2023-05-02T05:25:42;20.92;;;4.45;;
64826;SDS011;51265;53.972;12.286;2023-05-02T05:28:08;18.85;;;4.38;;
64826;SDS011;51265;53.972;12.286;2023-05-02T05:30:36;21.20;;;5.15;;
64826;SDS011;51265;53.972;12.286;2023-05-02T05:33:06;22.02;;;4.57;;
64826;SDS011;51265;53.972;12.286;2023-05-02T05:35:33;15.98;;;3.95;;
64826;SDS011;51265;53.972;12.286;2023-05-02T05:38:00;24.05;;;4.80;;
64826;SDS011;51265;53.972;12.286;2023-05-02T05:40:29;23.50;;;4.93;;
64826;SDS011;51265;53.972;12.286;2023-05-02T05:42:58;14.77;;;4.82;;
64826;SDS011;51265;53.972;12.286;2023-05-02T05:45:28;28.95;;;4.70;;
64826;SDS011;51265;53.972;12.286;2023-05-02T05:47:55;14.20;;;3.75;;
64826;SDS011;51265;53.972;12.286;2023-05-02T05:50:24;18.20;;;5.20;;
64826;SDS011;51265;53.972;12.286;2023-05-02T05:52:50;18.02;;;3.53;;
64826;SDS011;51265;53.972;12.286;2023-05-02T05:55:17;25.23;;;6.22;;
64826;SDS011;51265;53.972;12.286;2023-05-02T05:57:44;11.32;;;3.25;;
64826;SDS011;51265;53.972;12.286;2023-05-02T06:00:11;19.85;;;4.40;;
64826;SDS011;51265;53.972;12.286;2023-05-02T06:02:48;19.67;;;4.00;;
64826;SDS011;51265;53.972;12.286;2023-05-02T06:05:23;12.73;;;3.13;;
64826;SDS011;51265;53.972;12.286;2023-05-02T06:07:50;11.40;;;3.13;;
64826;SDS011;51265;53.972;12.286;2023-05-02T06:10:17;15.65;;;3.50;;
64826;SDS011;51265;53.972;12.286;2023-05-02T06:12:43;17.33;;;4.38;;
64826;SDS011;51265;53.972;12.286;2023-05-02T06:15:12;16.80;;;3.80;;
64826;SDS011;51265;53.972;12.286;2023-05-02T06:17:39;18.95;;;4.15;;
64826;SDS011;51265;53.972;12.286;2023-05-02T06:20:06;17.88;;;2.90;;
64826;SDS011;51265;53.972;12.286;2023-05-02T06:22:33;15.82;;;3.72;;
64826;SDS011;51265;53.972;12.286;2023-05-02T06:25:00;9.55;;;2.78;;
64826;SDS011;51265;53.972;12.286;2023-05-02T06:27:26;17.00;;;3.63;;
64826;SDS011;51265;53.972;12.286;2023-05-02T06:29:53;12.80;;;2.78;;
64826;SDS011;51265;53.972;12.286;2023-05-02T06:32:19;12.95;;;2.75;;
64826;SDS011;51265;53.972;12.286;2023-05-02T06:34:46;13.15;;;2.95;;
64826;SDS011;51265;53.972;12.286;2023-05-02T06:37:12;15.32;;;3.67;;
64826;SDS011;51265;53.972;12.286;2023-05-02T06:39:39;15.63;;;3.17;;
64826;SDS011;51265;53.972;12.286;2023-05-02T06:42:05;19.10;;;3.75;;
64826;SDS011;51265;53.972;12.286;2023-05-02T06:44:33;11.23;;;3.00;;
64826;SDS011;51265;53.972;12.286;2023-05-02T06:46:59;14.38;;;3.33;;
64826;SDS011;51265;53.972;12.286;2023-05-02T06:49:25;20.33;;;3.67;;
64826;SDS011;51265;53.972;12.286;2023-05-02T06:51:52;16.67;;;3.45;;
64826;SDS011;51265;53.972;12.286;2023-05-02T06:54:18;15.90;;;3.42;;
64826;SDS011;51265;53.972;12.286;2023-05-02T06:56:46;14.20;;;3.00;;
64826;SDS011;51265;53.972;12.286;2023-05-02T06:59:13;11.05;;;3.00;;
64826;SDS011;51265;53.972;12.286;2023-05-02T07:01:44;12.68;;;3.05;;
64826;SDS011;51265;53.972;12.286;2023-05-02T07:04:11;15.10;;;3.45;;
64826;SDS011;51265;53.972;12.286;2023-05-02T07:06:38;11.52;;;2.92;;
64826;SDS011;51265;53.972;12.286;2023-05-02T07:09:04;14.32;;;3.33;;
64826;SDS011;51265;53.972;12.286;2023-05-02T07:11:31;15.68;;;3.35;;
64826;SDS011;51265;53.972;12.286;2023-05-02T07:13:57;20.25;;;3.10;;
64826;SDS011;51265;53.972;12.286;2023-05-02T07:16:23;14.63;;;3.22;;
64826;SDS011;51265;53.972;12.286;2023-05-02T07:18:50;11.85;;;2.53;;
64826;SDS011;51265;53.972;12.286;2023-05-02T07:21:16;12.65;;;2.78;;
64826;SDS011;51265;53.972;12.286;2023-05-02T07:23:44;13.05;;;2.47;;
64826;SDS011;51265;53.972;12.286;2023-05-02T07:26:10;7.95;;;2.38;;
64826;SDS011;51265;53.972;12.286;2023-05-02T07:28:36;6.80;;;2.42;;
64826;SDS011;51265;53.972;12.286;2023-05-02T07:31:03;8.90;;;2.35;;
64826;SDS011;51265;53.972;12.286;2023-05-02T07:33:29;12.00;;;2.22;;
64826;SDS011;51265;53.972;12.286;2023-05-02T07:35:56;11.80;;;2.40;;
64826;SDS011;51265;53.972;12.286;2023-05-02T07:38:22;12.63;;;2.47;;
64826;SDS011;51265;53.972;12.286;2023-05-02T07:40:49;11.15;;;2.80;;
64826;SDS011;51265;53.972;12.286;2023-05-02T07:43:15;12.32;;;2.65;;
64826;SDS011;51265;53.972;12.286;2023-05-02T07:45:41;8.35;;;2.28;;
64826;SDS011;51265;53.972;12.286;2023-05-02T07:48:08;12.48;;;2.50;;
64826;SDS011;51265;53.972;12.286;2023-05-02T07:50:34;8.07;;;2.33;;
64826;SDS011;51265;53.972;12.286;2023-05-02T07:53:00;9.00;;;2.50;;
64826;SDS011;51265;53.972;12.286;2023-05-02T07:55:27;13.18;;;2.28;;
64826;SDS011;51265;53.972;12.286;2023-05-02T07:57:54;14.20;;;2.55;;
64826;SDS011;51265;53.972;12.286;2023-05-02T08:00:20;14.95;;;2.80;;
64826;SDS011;51265;53.972;12.286;2023-05-02T08:02:47;17.85;;;2.63;;
64826;SDS011;51265;53.972;12.286;2023-05-02T08:05:13;15.07;;;2.92;;
64826;SDS011;51265;53.972;12.286;2023-05-02T08:07:40;10.73;;;2.90;;
64826;SDS011;51265;53.972;12.286;2023-05-02T08:10:06;13.77;;;2.72;;
64826;SDS011;51265;53.972;12.286;2023-05-02T08:12:37;11.48;;;2.45;;
64826;SDS011;51265;53.972;12.286;2023-05-02T08:15:09;13.30;;;2.55;;
64826;SDS011;51265;53.972;12.286;2023-05-02T08:17:38;8.60;;;2.17;;
64826;SDS011;51265;53.972;12.286;2023-05-02T08:20:04;10.43;;;3.10;;
64826;SDS011;51265;53.972;12.286;2023-05-02T08:22:31;6.07;;;2.25;;
64826;SDS011;51265;53.972;12.286;2023-05-02T08:24:57;9.90;;;2.38;;
64826;SDS011;51265;53.972;12.286;2023-05-02T08:27:23;12.38;;;2.38;;
64826;SDS011;51265;53.972;12.286;2023-05-02T08:29:50;8.95;;;2.15;;
64826;SDS011;51265;53.972;12.286;2023-05-02T08:32:16;11.05;;;2.65;;
64826;SDS011;51265;53.972;12.286;2023-05-02T08:34:42;9.27;;;2.50;;
64826;SDS011;51265;53.972;12.286;2023-05-02T08:37:09;9.45;;;2.30;;
64826;SDS011;51265;53.972;12.286;2023-05-02T08:39:36;12.23;;;2.45;;
64826;SDS011;51265;53.972;12.286;2023-05-02T08:42:06;11.25;;;2.38;;
64826;SDS011;51265;53.972;12.286;2023-05-02T08:44:33;10.52;;;2.85;;
64826;SDS011;51265;53.972;12.286;2023-05-02T08:47:14;9.80;;;2.65;;
64826;SDS011;51265;53.972;12.286;2023-05-02T08:49:41;7.93;;;2.22;;
64826;SDS011;51265;53.972;12.286;2023-05-02T08:52:08;8.48;;;2.00;;
64826;SDS011;51265;53.972;12.286;2023-05-02T08:54:36;9.20;;;2.00;;
64826;SDS011;51265;53.972;12.286;2023-05-02T08:57:03;8.60;;;1.98;;
64826;SDS011;51265;53.972;12.286;2023-05-02T08:59:30;8.07;;;2.22;;
64826;SDS011;51265;53.972;12.286;2023-05-02T09:01:58;13.40;;;2.60;;
64826;SDS011;51265;53.972;12.286;2023-05-02T09:04:30;8.18;;;2.55;;
64826;SDS011;51265;53.972;12.286;2023-05-02T09:07:00;9.52;;;2.50;;
64826;SDS011;51265;53.972;12.286;2023-05-02T09:09:26;11.48;;;2.13;;
64826;SDS011;51265;53.972;12.286;2023-05-02T09:11:54;7.35;;;2.30;;
64826;SDS011;51265;53.972;12.286;2023-05-02T09:14:26;8.02;;;2.30;;
64826;SDS011;51265;53.972;12.286;2023-05-02T09:16:57;7.70;;;2.53;;
64826;SDS011;51265;53.972;12.286;2023-05-02T09:19:25;8.73;;;2.08;;
64826;SDS011;51265;53.972;12.286;2023-05-02T09:21:52;14.98;;;2.70;;
64826;SDS011;51265;53.972;12.286;2023-05-02T09:24:25;10.35;;;2.72;;
64826;SDS011;51265;53.972;12.286;2023-05-02T09:27:02;7.97;;;2.35;;
64826;SDS011;51265;53.972;12.286;2023-05-02T09:29:30;10.77;;;2.58;;
64826;SDS011;51265;53.972;12.286;2023-05-02T09:32:01;10.02;;;2.30;;
64826;SDS011;51265;53.972;12.286;2023-05-02T09:34:29;6.35;;;2.20;;
64826;SDS011;51265;53.972;12.286;2023-05-02T09:36:56;9.43;;;2.55;;
64826;SDS011;51265;53.972;12.286;2023-05-02T09:39:24;12.88;;;2.60;;
64826;SDS011;51265;53.972;12.286;2023-05-02T09:41:54;5.55;;;1.65;;
64826;SDS011;51265;53.972;12.286;2023-05-02T09:44:22;8.43;;;1.73;;
64826;SDS011;51265;53.972;12.286;2023-05-02T09:46:50;9.18;;;2.72;;
64826;SDS011;51265;53.972;12.286;2023-05-02T09:49:18;6.25;;;1.70;;
64826;SDS011;51265;53.972;12.286;2023-05-02T09:52:16;7.05;;;2.00;;
64826;SDS011;51265;53.972;12.286;2023-05-02T09:54:46;7.57;;;1.80;;
64826;SDS011;51265;53.972;12.286;2023-05-02T09:57:15;4.78;;;1.33;;
64826;SDS011;51265;53.972;12.286;2023-05-02T09:59:53;8.40;;;2.13;;
64826;SDS011;51265;53.972;12.286;2023-05-02T10:02:20;5.80;;;2.25;;
64826;SDS011;51265;53.972;12.286;2023-05-02T10:04:48;5.75;;;1.80;;
64826;SDS011;51265;53.972;12.286;2023-05-02T10:07:15;7.65;;;2.00;;
64826;SDS011;51265;53.972;12.286;2023-05-02T10:09:42;7.03;;;1.73;;
64826;SDS011;51265;53.972;12.286;2023-05-02T10:12:13;7.10;;;2.08;;
64826;SDS011;51265;53.972;12.286;2023-05-02T10:14:40;8.07;;;2.00;;
64826;SDS011;51265;53.972;12.286;2023-05-02T10:17:19;8.60;;;1.90;;
64826;SDS011;51265;53.972;12.286;2023-05-02T10:20:00;6.60;;;1.80;;
64826;SDS011;51265;53.972;12.286;2023-05-02T10:22:29;8.52;;;1.73;;
64826;SDS011;51265;53.972;12.286;2023-05-02T10:24:57;9.05;;;2.10;;
64826;SDS011;51265;53.972;12.286;2023-05-02T10:27:25;9.85;;;2.05;;
64826;SDS011;51265;53.972;12.286;2023-05-02T10:29:51;8.15;;;1.95;;
64826;SDS011;51265;53.972;12.286;2023-05-02T10:32:19;6.40;;;1.70;;
64826;SDS011;51265;53.972;12.286;2023-05-02T10:34:48;7.75;;;2.10;;
64826;SDS011;51265;53.972;12.286;2023-05-02T10:37:16;8.90;;;2.00;;
64826;SDS011;51265;53.972;12.286;2023-05-02T10:39:44;5.60;;;1.60;;
64826;SDS011;51265;53.972;12.286;2023-05-02T10:42:10;8.38;;;2.00;;
64826;SDS011;51265;53.972;12.286;2023-05-02T10:44:38;5.60;;;1.98;;
64826;SDS011;51265;53.972;12.286;2023-05-02T10:49:52;6.07;;;2.00;;
64826;SDS011;51265;53.972;12.286;2023-05-02T11:00:26;7.93;;;1.75;;
64826;SDS011;51265;53.972;12.286;2023-05-02T11:02:57;8.32;;;1.92;;
64826;SDS011;51265;53.972;12.286;2023-05-02T11:05:25;11.02;;;1.85;;
64826;SDS011;51265;53.972;12.286;2023-05-02T11:10:40;6.50;;;2.20;;
64826;SDS011;51265;53.972;12.286;2023-05-02T11:13:07;10.55;;;2.20;;
64826;SDS011;51265;53.972;12.286;2023-05-02T11:20:26;9.55;;;1.75;;
64826;SDS011;51265;53.972;12.286;2023-05-02T11:22:54;10.95;;;1.90;;
64826;SDS011;51265;53.972;12.286;2023-05-02T11:25:28;7.13;;;1.83;;
64826;SDS011;51265;53.972;12.286;2023-05-02T11:30:40;9.02;;;2.03;;
64826;SDS011;51265;53.972;12.286;2023-05-02T11:35:35;5.63;;;1.77;;
64826;SDS011;51265;53.972;12.286;2023-05-02T11:38:03;6.32;;;2.10;;
64826;SDS011;51265;53.972;12.286;2023-05-02T11:40:31;9.30;;;1.95;;
64826;SDS011;51265;53.972;12.286;2023-05-02T11:42:58;8.00;;;1.80;;
64826;SDS011;51265;53.972;12.286;2023-05-02T11:45:34;8.60;;;2.33;;
64826;SDS011;51265;53.972;12.286;2023-05-02T11:48:05;10.18;;;1.95;;
64826;SDS011;51265;53.972;12.286;2023-05-02T11:50:32;6.25;;;1.65;;
64826;SDS011;51265;53.972;12.286;2023-05-02T11:52:59;7.07;;;2.10;;
64826;SDS011;51265;53.972;12.286;2023-05-02T11:55:26;4.38;;;1.70;;
64826;SDS011;51265;53.972;12.286;2023-05-02T11:57:52;7.75;;;2.10;;
64826;SDS011;51265;53.972;12.286;2023-05-02T12:00:25;8.57;;;2.08;;
64826;SDS011;51265;53.972;12.286;2023-05-02T12:02:52;7.73;;;1.73;;
64826;SDS011;51265;53.972;12.286;2023-05-02T12:05:26;4.88;;;1.83;;
64826;SDS011;51265;53.972;12.286;2023-05-02T12:07:57;10.43;;;1.80;;
64826;SDS011;51265;53.972;12.286;2023-05-02T12:10:24;10.73;;;1.77;;
64826;SDS011;51265;53.972;12.286;2023-05-02T12:13:32;5.25;;;1.40;;
64826;SDS011;51265;53.972;12.286;2023-05-02T12:15:59;7.40;;;2.10;;
64826;SDS011;51265;53.972;12.286;2023-05-02T12:18:26;5.32;;;1.40;;
64826;SDS011;51265;53.972;12.286;2023-05-02T12:20:53;7.57;;;2.20;;
64826;SDS011;51265;53.972;12.286;2023-05-02T12:23:21;5.18;;;1.73;;
64826;SDS011;51265;53.972;12.286;2023-05-02T12:25:49;9.95;;;2.20;;
64826;SDS011;51265;53.972;12.286;2023-05-02T12:28:16;4.32;;;1.70;;
64826;SDS011;51265;53.972;12.286;2023-05-02T12:30:46;11.18;;;2.72;;
64826;SDS011;51265;53.972;12.286;2023-05-02T12:33:13;6.13;;;1.90;;
64826;SDS011;51265;53.972;12.286;2023-05-02T12:35:39;5.45;;;1.70;;
64826;SDS011;51265;53.972;12.286;2023-05-02T12:38:07;5.57;;;1.95;;
64826;SDS011;51265;53.972;12.286;2023-05-02T12:40:35;6.47;;;2.25;;
64826;SDS011;51265;53.972;12.286;2023-05-02T12:43:03;4.65;;;1.98;;
64826;SDS011;51265;53.972;12.286;2023-05-02T12:45:32;4.57;;;1.92;;
64826;SDS011;51265;53.972;12.286;2023-05-02T12:48:01;5.82;;;2.20;;
64826;SDS011;51265;53.972;12.286;2023-05-02T12:50:44;6.88;;;1.77;;
64826;SDS011;51265;53.972;12.286;2023-05-02T12:53:10;8.25;;;2.33;;
64826;SDS011;51265;53.972;12.286;2023-05-02T12:55:37;7.70;;;1.90;;
64826;SDS011;51265;53.972;12.286;2023-05-02T12:58:04;9.07;;;2.10;;
64826;SDS011;51265;53.972;12.286;2023-05-02T13:00:32;8.65;;;1.90;;
64826;SDS011;51265;53.972;12.286;2023-05-02T13:03:01;9.98;;;1.80;;
64826;SDS011;51265;53.972;12.286;2023-05-02T13:05:27;9.73;;;2.17;;
64826;SDS011;51265;53.972;12.286;2023-05-02T13:07:53;5.68;;;1.38;;
64826;SDS011;51265;53.972;12.286;2023-05-02T13:10:22;3.83;;;1.60;;
64826;SDS011;51265;53.972;12.286;2023-05-02T13:12:49;7.70;;;1.92;;
64826;SDS011;51265;53.972;12.286;2023-05-02T13:15:16;3.60;;;1.58;;
64826;SDS011;51265;53.972;12.286;2023-05-02T13:17:43;8.02;;;1.80;;
64826;SDS011;51265;53.972;12.286;2023-05-02T13:20:10;6.78;;;2.13;;
64826;SDS011;51265;53.972;12.286;2023-05-02T13:22:37;6.30;;;1.73;;
64826;SDS011;51265;53.972;12.286;2023-05-02T13:25:04;8.00;;;2.10;;
64826;SDS011;51265;53.972;12.286;2023-05-02T13:27:31;7.35;;;2.30;;
64826;SDS011;51265;53.972;12.286;2023-05-02T13:29:59;4.57;;;1.83;;
64826;SDS011;51265;53.972;12.286;2023-05-02T13:32:29;7.28;;;1.98;;
64826;SDS011;51265;53.972;12.286;2023-05-02T13:34:55;7.80;;;1.95;;
64826;SDS011;51265;53.972;12.286;2023-05-02T13:37:21;6.03;;;1.90;;
64826;SDS011;51265;53.972;12.286;2023-05-02T13:39:48;7.78;;;2.03;;
64826;SDS011;51265;53.972;12.286;2023-05-02T13:42:14;5.80;;;1.70;;
64826;SDS011;51265;53.972;12.286;2023-05-02T13:44:41;6.22;;;1.60;;
64826;SDS011;51265;53.972;12.286;2023-05-02T13:47:12;8.43;;;2.08;;
64826;SDS011;51265;53.972;12.286;2023-05-02T13:49:39;6.43;;;1.70;;
64826;SDS011;51265;53.972;12.286;2023-05-02T13:52:06;9.48;;;2.20;;
64826;SDS011;51265;53.972;12.286;2023-05-02T13:54:32;11.98;;;2.50;;
64826;SDS011;51265;53.972;12.286;2023-05-02T13:56:58;8.82;;;2.33;;
64826;SDS011;51265;53.972;12.286;2023-05-02T13:59:25;7.05;;;2.35;;
64826;SDS011;51265;53.972;12.286;2023-05-02T14:01:51;6.95;;;2.08;;
64826;SDS011;51265;53.972;12.286;2023-05-02T14:04:18;8.02;;;2.33;;
64826;SDS011;51265;53.972;12.286;2023-05-02T14:06:44;7.50;;;1.77;;
64826;SDS011;51265;53.972;12.286;2023-05-02T14:09:10;6.07;;;1.73;;
64826;SDS011;51265;53.972;12.286;2023-05-02T14:11:37;6.53;;;1.80;;
64826;SDS011;51265;53.972;12.286;2023-05-02T14:14:03;7.60;;;2.30;;
64826;SDS011;51265;53.972;12.286;2023-05-02T14:16:30;8.50;;;2.08;;
64826;SDS011;51265;53.972;12.286;2023-05-02T14:18:56;9.70;;;2.30;;
64826;SDS011;51265;53.972;12.286;2023-05-02T14:21:22;8.32;;;1.95;;
64826;SDS011;51265;53.972;12.286;2023-05-02T14:23:49;7.93;;;1.80;;
64826;SDS011;51265;53.972;12.286;2023-05-02T14:26:15;8.07;;;2.10;;
64826;SDS011;51265;53.972;12.286;2023-05-02T14:28:41;9.65;;;2.17;;
64826;SDS011;51265;53.972;12.286;2023-05-02T14:31:08;6.80;;;1.98;;
64826;SDS011;51265;53.972;12.286;2023-05-02T14:33:34;10.38;;;2.83;;
64826;SDS011;51265;53.972;12.286;2023-05-02T14:36:00;10.25;;;2.20;;
64826;SDS011;51265;53.972;12.286;2023-05-02T14:38:27;8.77;;;2.30;;
64826;SDS011;51265;53.972;12.286;2023-05-02T14:40:53;5.63;;;2.15;;
64826;SDS011;51265;53.972;12.286;2023-05-02T14:43:20;4.28;;;1.80;;
64826;SDS011;51265;53.972;12.286;2023-05-02T14:45:46;6.90;;;2.20;;
64826;SDS011;51265;53.972;12.286;2023-05-02T14:48:12;5.60;;;2.22;;
64826;SDS011;51265;53.972;12.286;2023-05-02T14:50:40;7.95;;;2.42;;
64826;SDS011;51265;53.972;12.286;2023-05-02T14:53:07;8.57;;;2.25;;
64826;SDS011;51265;53.972;12.286;2023-05-02T14:55:37;9.30;;;2.30;;
64826;SDS011;51265;53.972;12.286;2023-05-02T14:58:07;11.63;;;2.38;;
64826;SDS011;51265;53.972;12.286;2023-05-02T15:00:35;11.25;;;2.05;;
64826;SDS011;51265;53.972;12.286;2023-05-02T15:03:06;9.20;;;2.20;;
64826;SDS011;51265;53.972;12.286;2023-05-02T15:05:32;14.27;;;2.20;;
64826;SDS011;51265;53.972;12.286;2023-05-02T15:07:59;8.65;;;2.10;;
64826;SDS011;51265;53.972;12.286;2023-05-02T15:10:26;6.90;;;1.73;;
64826;SDS011;51265;53.972;12.286;2023-05-02T15:12:53;8.20;;;1.98;;
64826;SDS011;51265;53.972;12.286;2023-05-02T15:15:19;6.15;;;1.77;;
64826;SDS011;51265;53.972;12.286;2023-05-02T15:17:50;5.22;;;1.90;;
64826;SDS011;51265;53.972;12.286;2023-05-02T15:20:17;7.43;;;1.70;;
64826;SDS011;51265;53.972;12.286;2023-05-02T15:22:43;7.68;;;1.90;;